Barry Silverton — WDI2338 — position and weather

sailwx.info

Track history (hours):
 
Tides and Currents Weather Stations Pressure Air Temp Water Temp Dewpoint Dewpoint Depression Visibility Wind Speed Wind Dir Waves Ship Positions

Barry Silverton

Owner: Harley Marine Services, Inc, Seattle, WA. More information available from US FCC via Universal Licensing System and Coast Guard Vessel Documentation Center.

Last reported at 2017-Dec-11 17:00 UTC. Time now 2017-Dec-12 21:58 UTC.
Position N 40°36' W 074°12'.

Length 178 m; draft 4.3 m.

Type: Ship. MMSI: 367677130.

Date/timePositionNaut miles runAvg speedWind from/ knotsBaromVisibWave heightAir tempDewpointWater temp
2017-Dec-11 17:00N 40°36' W 074°12'0 0.0
2017-Dec-11 16:30N 40°36' W 074°12'0 0.0
2017-Dec-11 16:00N 40°36' W 074°12'0 0.0
2017-Dec-11 15:30N 40°36' W 074°12'0 0.2
2017-Dec-11 15:00N 40°36' W 074°12'0 0.0
2017-Dec-11 14:30N 40°36' W 074°12'0 0.0
2017-Dec-11 14:00N 40°36' W 074°12'0 0.0
2017-Dec-11 13:30N 40°36' W 074°12'0 0.0
2017-Dec-11 13:00N 40°36' W 074°12'0 0.0
2017-Dec-11 12:30N 40°36' W 074°12'0 0.0
2017-Dec-11 12:00N 40°36' W 074°12'0 0.0
2017-Dec-11 09:52N 40°36' W 074°12'0 0.0
2017-Dec-11 09:27N 40°36' W 074°12'0 0.0
2017-Dec-11 09:00N 40°36' W 074°12'0 0.0
2017-Dec-11 07:51N 40°36' W 074°12'0 0.0
2017-Dec-11 07:25N 40°36' W 074°12'0 0.0
2017-Dec-11 07:00N 40°36' W 074°12'0 0.0
2017-Dec-11 05:27N 40°36' W 074°12'0 0.0
2017-Dec-11 04:58N 40°36' W 074°12'0 0.0
2017-Dec-11 04:19N 40°36' W 074°12'0 0.0
2017-Dec-11 03:56N 40°36' W 074°12'0 0.0
2017-Dec-11 03:30N 40°36' W 074°12'0 0.0
2017-Dec-11 02:59N 40°36' W 074°12'0 0.0
2017-Dec-11 02:30N 40°36' W 074°12'0 0.0
2017-Dec-11 02:00N 40°36' W 074°12'0 0.0
2017-Dec-11 01:29N 40°36' W 074°12'0 0.0
2017-Dec-11 00:58N 40°36' W 074°12'0 0.0
2017-Dec-11 00:29N 40°36' W 074°12'0 0.0
2017-Dec-10 23:57N 40°36' W 074°12'0 0.0
2017-Dec-10 23:30N 40°36' W 074°12'1 1.8
2017-Dec-10 23:00N 40°37' W 074°12'2 4.6
2017-Dec-10 22:30N 40°39' W 074°10'0 0.0
2017-Dec-10 22:00N 40°39' W 074°10'0 0.0
2017-Dec-10 21:30N 40°39' W 074°10'0 0.0
2017-Dec-10 21:00N 40°39' W 074°10'0 0.0
2017-Dec-10 20:30N 40°39' W 074°10'0 0.0
2017-Dec-10 20:00N 40°39' W 074°10'0 0.0
2017-Dec-10 19:30N 40°39' W 074°10'0 0.0
2017-Dec-10 19:00N 40°39' W 074°10'2 3.7
2017-Dec-10 18:30N 40°38' W 074°12'2 3.3
2017-Dec-10 18:00N 40°36' W 074°12'0 0.2
2017-Dec-10 17:30N 40°36' W 074°12'3 6.1
2017-Dec-10 17:00N 40°39' W 074°10'4 8.0
2017-Dec-10 16:30N 40°39' W 074°05'4 8.1
2017-Dec-10 16:00N 40°41' W 074°01'4 7.6
2017-Dec-10 15:30N 40°44' W 073°58'4 8.4
2017-Dec-10 15:00N 40°48' W 073°55'3 5.7
2017-Dec-10 14:30N 40°48' W 073°51'4 7.7
2017-Dec-10 14:00N 40°50' W 073°46'4 7.1
2017-Dec-10 13:28N 40°53' W 073°43'3 5.6
2017-Dec-10 13:00N 40°54' W 073°40'3 5.5
2017-Dec-10 12:25N 40°56' W 073°37'43 5.5
2017-Dec-10 04:34N 41°06' W 072°41'1 8.2
2017-Dec-10 04:23N 41°07' W 072°39'410.3
2017-Dec-10 03:59N 41°08' W 072°34'510.5
2017-Dec-10 03:30N 41°09' W 072°28'5 9.9
2017-Dec-10 03:00N 41°10' W 072°21'6 9.2
2017-Dec-10 02:24N 41°12' W 072°14'4 8.9
2017-Dec-10 02:00N 41°14' W 072°10'4 8.9
2017-Dec-10 01:30N 41°14' W 072°04'88 6.9
2017-Dec-09 12:51N 42°09' W 070°32'2 5.2
2017-Dec-09 12:25N 42°11' W 070°33'2 4.7
2017-Dec-09 12:00N 42°12' W 070°35'2 4.7
2017-Dec-09 11:30N 42°14' W 070°37'2 4.8
2017-Dec-09 10:59N 42°16' W 070°38'2 4.8
2017-Dec-09 10:30N 42°18' W 070°40'4 7.2
2017-Dec-09 10:00N 42°21' W 070°42'5 9.8
2017-Dec-09 09:30N 42°26' W 070°42'5 9.9
2017-Dec-09 09:00N 42°31' W 070°39'510.0
2017-Dec-09 08:30N 42°35' W 070°35'5 9.9
2017-Dec-09 08:00N 42°39' W 070°31'510.1
2017-Dec-09 07:30N 42°43' W 070°28'510.3
2017-Dec-09 07:00N 42°48' W 070°25'510.4
2017-Dec-09 06:30N 42°53' W 070°23'510.4
2017-Dec-09 06:00N 42°58' W 070°20'2 0.0
2017-Dec-07 03:26N 42°57' W 070°17'4 9.5
2017-Dec-07 02:59N 42°53' W 070°21'4 9.5
2017-Dec-07 02:30N 42°50' W 070°24'4 8.6
2017-Dec-07 02:00N 42°46' W 070°27'4 8.7
2017-Dec-07 01:30N 42°42' W 070°30'5 9.1
2017-Dec-07 01:00N 42°38' W 070°32'5 9.1
2017-Dec-07 00:30N 42°35' W 070°36'4 9.0
2017-Dec-07 00:00N 42°31' W 070°41'5 9.0
2017-Dec-06 23:30N 42°28' W 070°45'5 9.0
2017-Dec-06 23:00N 42°25' W 070°50'5 9.6
2017-Dec-06 22:30N 42°22' W 070°55'3 4.3
2017-Dec-06 21:47N 42°20' W 070°58'0 0.0
2017-Dec-06 21:29N 42°20' W 070°58'0 0.0
2017-Dec-06 20:56N 42°20' W 070°58'  
2017-Dec-04 10:22N 42°20' W 070°51'0 0.1
2017-Dec-04 10:00N 42°20' W 070°51'0 0.0
2017-Dec-04 09:29N 42°20' W 070°51'0 0.1
2017-Dec-04 09:00N 42°20' W 070°51'0 0.2
2017-Dec-04 08:30N 42°20' W 070°51'0 0.1
2017-Dec-04 08:00N 42°20' W 070°51'0 0.0
2017-Dec-04 07:30N 42°20' W 070°51'0 0.0
2017-Dec-04 07:00N 42°20' W 070°51'0 0.0
2017-Dec-04 06:30N 42°20' W 070°51'0 0.0
2017-Dec-04 06:00N 42°20' W 070°51'0 0.0
2017-Dec-04 05:30N 42°20' W 070°51'0 0.0
2017-Dec-04 05:00N 42°20' W 070°51'0 0.0
2017-Dec-04 04:30N 42°20' W 070°51'0 0.1
2017-Dec-04 04:00N 42°20' W 070°51'0 0.0
2017-Dec-04 03:30N 42°20' W 070°51'0 0.0
2017-Dec-04 03:00N 42°20' W 070°51'0 0.0
2017-Dec-04 02:30N 42°20' W 070°51'0 0.1
2017-Dec-04 02:00N 42°20' W 070°51'0 0.0
2017-Dec-04 01:30N 42°20' W 070°51'0 0.0
2017-Dec-04 01:00N 42°20' W 070°51'0 0.4
2017-Dec-04 00:30N 42°20' W 070°51'2 4.2
2017-Dec-04 00:00N 42°19' W 070°48'5 9.8
2017-Dec-03 23:30N 42°18' W 070°42'5 9.8
2017-Dec-03 23:00N 42°14' W 070°37'5 9.6
2017-Dec-03 22:30N 42°10' W 070°33'5 9.6
2017-Dec-03 22:00N 42°06' W 070°31'81 7.6
2017-Dec-03 11:19N 41°15' W 071°55'9 8.4
2017-Dec-03 10:15N 41°14' W 072°07'2 9.1
2017-Dec-03 10:00N 41°14' W 072°10'5 9.5
2017-Dec-03 09:30N 41°12' W 072°16'5 9.9
2017-Dec-03 09:00N 41°11' W 072°22'510.5
2017-Dec-03 08:30N 41°09' W 072°29'510.5
2017-Dec-03 08:00N 41°07' W 072°35'510.7
2017-Dec-03 07:30N 41°06' W 072°42'510.6
2017-Dec-03 07:00N 41°05' W 072°49'4310.0
2017-Dec-03 02:42N 40°53' W 073°44'2 9.3
2017-Dec-03 02:30N 40°51' W 073°45'4 8.2
2017-Dec-03 02:00N 40°48' W 073°48'5 9.1
2017-Dec-03 01:30N 40°48' W 073°54'4 7.1
2017-Dec-03 01:00N 40°45' W 073°57'3 5.6
2017-Dec-03 00:30N 40°43' W 073°58'3 6.0
2017-Dec-03 00:00N 40°41' W 074°01'3 6.3
2017-Dec-02 23:30N 40°39' W 074°05'3 5.6
2017-Dec-02 23:00N 40°39' W 074°08'2 4.3
2017-Dec-02 22:30N 40°39' W 074°11'3 4.9
2017-Dec-02 22:00N 40°36' W 074°12'0 0.5
2017-Dec-02 21:30N 40°36' W 074°12'0 0.0
2017-Dec-02 21:00N 40°36' W 074°12'0 0.0
2017-Dec-02 20:30N 40°36' W 074°12'0 0.0
2017-Dec-02 20:00N 40°36' W 074°12'0 0.0
2017-Dec-02 19:30N 40°36' W 074°12'0 0.0
2017-Dec-02 18:59N 40°36' W 074°12'0 0.0
2017-Dec-02 18:30N 40°36' W 074°12'0 0.0
2017-Dec-02 18:00N 40°36' W 074°12'0 0.0
2017-Dec-02 17:30N 40°36' W 074°12'0 0.0
2017-Dec-02 16:59N 40°36' W 074°12'0 0.0
2017-Dec-02 16:30N 40°36' W 074°12'0 0.0
2017-Dec-02 16:00N 40°36' W 074°12'0 0.0
2017-Dec-02 15:30N 40°36' W 074°12'0 0.0
2017-Dec-02 15:00N 40°36' W 074°12'0 0.0
2017-Dec-02 14:30N 40°36' W 074°12'0 0.0
2017-Dec-02 14:00N 40°36' W 074°12'0 0.0
2017-Dec-02 13:30N 40°36' W 074°12'0 0.0
2017-Dec-02 13:00N 40°36' W 074°12'0 0.0
2017-Dec-02 12:30N 40°36' W 074°12'0 0.0
2017-Dec-02 12:00N 40°36' W 074°12'0 0.0
2017-Dec-02 11:30N 40°36' W 074°12'0 0.0
2017-Dec-02 11:00N 40°36' W 074°12'0 0.0
2017-Dec-02 10:29N 40°36' W 074°12'0 0.0
2017-Dec-02 10:00N 40°36' W 074°12'0 0.0
2017-Dec-02 09:29N 40°36' W 074°12'0 0.0
2017-Dec-02 09:00N 40°36' W 074°12'0 0.0
2017-Dec-02 08:30N 40°36' W 074°12'0 0.0
2017-Dec-02 08:00N 40°36' W 074°12'0 0.0
2017-Dec-02 07:30N 40°36' W 074°12'0 0.0
2017-Dec-02 07:00N 40°36' W 074°12'0 0.0
2017-Dec-02 06:30N 40°36' W 074°12'0 0.0
2017-Dec-02 06:00N 40°36' W 074°12'0 0.0
2017-Dec-02 05:30N 40°36' W 074°12'0 0.0
2017-Dec-02 04:59N 40°36' W 074°12'0 0.0
2017-Dec-02 04:30N 40°36' W 074°12'0 0.0
2017-Dec-02 04:00N 40°36' W 074°12'0 0.0
2017-Dec-02 03:30N 40°36' W 074°12'0 0.0
2017-Dec-02 02:59N 40°36' W 074°12'0 0.0
2017-Dec-02 02:30N 40°36' W 074°12'0 0.0
2017-Dec-02 02:00N 40°36' W 074°12'0 0.0
2017-Dec-02 01:30N 40°36' W 074°12'2 4.3
2017-Dec-02 01:00N 40°34' W 074°13'1 1.8
2017-Dec-02 00:26N 40°33' W 074°14'3 3.3
2017-Dec-01 23:40N 40°31' W 074°15'1 2.5
2017-Dec-01 23:24N 40°32' W 074°15'2 4.3
2017-Dec-01 22:59N 40°33' W 074°14'2 3.9
2017-Dec-01 22:30N 40°35' W 074°13'1 2.9
2017-Dec-01 22:00N 40°36' W 074°12'2 4.1
2017-Dec-01 21:29N 40°38' W 074°12'2 5.1
2017-Dec-01 21:00N 40°39' W 074°08'4 8.0
2017-Dec-01 20:30N 40°39' W 074°03'1 1.7
2017-Dec-01 20:00N 40°39' W 074°02'2 3.9
2017-Dec-01 19:30N 40°41' W 074°01'3 6.3
2017-Dec-01 19:00N 40°43' W 073°58'4 7.5
2017-Dec-01 18:29N 40°46' W 073°56'3 6.5
2017-Dec-01 18:00N 40°48' W 073°53'3 6.6
2017-Dec-01 17:30N 40°48' W 073°48'2 5.0
2017-Dec-01 17:00N 40°50' W 073°46'  
Track history (hours):
 
Tides and Currents Weather Stations Pressure Air Temp Water Temp Dewpoint Dewpoint Depression Visibility Wind Speed Wind Dir Waves Ship Positions

Barry Silverton

Owner: Harley Marine Services, Inc, Seattle, WA. More information available from US FCC via Universal Licensing System and Coast Guard Vessel Documentation Center.

Last reported at 2017-Dec-11 17:00 UTC. Time now 2017-Dec-12 21:58 UTC.
Position N 40°36' W 074°12'.

Length 178 m; draft 4.3 m.

Type: Ship. MMSI: 367677130.

Date/timePositionNaut miles runAvg speedWind from/ knotsBaromVisibWave heightAir tempDewpointWater temp
2017-Dec-11 17:00N 40°36' W 074°12'0 0.0
2017-Dec-11 16:30N 40°36' W 074°12'0 0.0
2017-Dec-11 16:00N 40°36' W 074°12'0 0.0
2017-Dec-11 15:30N 40°36' W 074°12'0 0.2
2017-Dec-11 15:00N 40°36' W 074°12'0 0.0
2017-Dec-11 14:30N 40°36' W 074°12'0 0.0
2017-Dec-11 14:00N 40°36' W 074°12'0 0.0
2017-Dec-11 13:30N 40°36' W 074°12'0 0.0
2017-Dec-11 13:00N 40°36' W 074°12'0 0.0
2017-Dec-11 12:30N 40°36' W 074°12'0 0.0
2017-Dec-11 12:00N 40°36' W 074°12'0 0.0
2017-Dec-11 09:52N 40°36' W 074°12'0 0.0
2017-Dec-11 09:27N 40°36' W 074°12'0 0.0
2017-Dec-11 09:00N 40°36' W 074°12'0 0.0
2017-Dec-11 07:51N 40°36' W 074°12'0 0.0
2017-Dec-11 07:25N 40°36' W 074°12'0 0.0
2017-Dec-11 07:00N 40°36' W 074°12'0 0.0
2017-Dec-11 05:27N 40°36' W 074°12'0 0.0
2017-Dec-11 04:58N 40°36' W 074°12'0 0.0
2017-Dec-11 04:19N 40°36' W 074°12'0 0.0
2017-Dec-11 03:56N 40°36' W 074°12'0 0.0
2017-Dec-11 03:30N 40°36' W 074°12'0 0.0
2017-Dec-11 02:59N 40°36' W 074°12'0 0.0
2017-Dec-11 02:30N 40°36' W 074°12'0 0.0
2017-Dec-11 02:00N 40°36' W 074°12'0 0.0
2017-Dec-11 01:29N 40°36' W 074°12'0 0.0
2017-Dec-11 00:58N 40°36' W 074°12'0 0.0
2017-Dec-11 00:29N 40°36' W 074°12'0 0.0
2017-Dec-10 23:57N 40°36' W 074°12'0 0.0
2017-Dec-10 23:30N 40°36' W 074°12'1 1.8
2017-Dec-10 23:00N 40°37' W 074°12'2 4.6
2017-Dec-10 22:30N 40°39' W 074°10'0 0.0
2017-Dec-10 22:00N 40°39' W 074°10'0 0.0
2017-Dec-10 21:30N 40°39' W 074°10'0 0.0
2017-Dec-10 21:00N 40°39' W 074°10'0 0.0
2017-Dec-10 20:30N 40°39' W 074°10'0 0.0
2017-Dec-10 20:00N 40°39' W 074°10'0 0.0
2017-Dec-10 19:30N 40°39' W 074°10'0 0.0
2017-Dec-10 19:00N 40°39' W 074°10'2 3.7
2017-Dec-10 18:30N 40°38' W 074°12'2 3.3
2017-Dec-10 18:00N 40°36' W 074°12'0 0.2
2017-Dec-10 17:30N 40°36' W 074°12'3 6.1
2017-Dec-10 17:00N 40°39' W 074°10'4 8.0
2017-Dec-10 16:30N 40°39' W 074°05'4 8.1
2017-Dec-10 16:00N 40°41' W 074°01'4 7.6
2017-Dec-10 15:30N 40°44' W 073°58'4 8.4
2017-Dec-10 15:00N 40°48' W 073°55'3 5.7
2017-Dec-10 14:30N 40°48' W 073°51'4 7.7
2017-Dec-10 14:00N 40°50' W 073°46'4 7.1
2017-Dec-10 13:28N 40°53' W 073°43'3 5.6
2017-Dec-10 13:00N 40°54' W 073°40'3 5.5
2017-Dec-10 12:25N 40°56' W 073°37'43 5.5
2017-Dec-10 04:34N 41°06' W 072°41'1 8.2
2017-Dec-10 04:23N 41°07' W 072°39'410.3
2017-Dec-10 03:59N 41°08' W 072°34'510.5
2017-Dec-10 03:30N 41°09' W 072°28'5 9.9
2017-Dec-10 03:00N 41°10' W 072°21'6 9.2
2017-Dec-10 02:24N 41°12' W 072°14'4 8.9
2017-Dec-10 02:00N 41°14' W 072°10'4 8.9
2017-Dec-10 01:30N 41°14' W 072°04'88 6.9
2017-Dec-09 12:51N 42°09' W 070°32'2 5.2
2017-Dec-09 12:25N 42°11' W 070°33'2 4.7
2017-Dec-09 12:00N 42°12' W 070°35'2 4.7
2017-Dec-09 11:30N 42°14' W 070°37'2 4.8
2017-Dec-09 10:59N 42°16' W 070°38'2 4.8
2017-Dec-09 10:30N 42°18' W 070°40'4 7.2
2017-Dec-09 10:00N 42°21' W 070°42'5 9.8
2017-Dec-09 09:30N 42°26' W 070°42'5 9.9
2017-Dec-09 09:00N 42°31' W 070°39'510.0
2017-Dec-09 08:30N 42°35' W 070°35'5 9.9
2017-Dec-09 08:00N 42°39' W 070°31'510.1
2017-Dec-09 07:30N 42°43' W 070°28'510.3
2017-Dec-09 07:00N 42°48' W 070°25'510.4
2017-Dec-09 06:30N 42°53' W 070°23'510.4
2017-Dec-09 06:00N 42°58' W 070°20'2 0.0
2017-Dec-07 03:26N 42°57' W 070°17'4 9.5
2017-Dec-07 02:59N 42°53' W 070°21'4 9.5
2017-Dec-07 02:30N 42°50' W 070°24'4 8.6
2017-Dec-07 02:00N 42°46' W 070°27'4 8.7
2017-Dec-07 01:30N 42°42' W 070°30'5 9.1
2017-Dec-07 01:00N 42°38' W 070°32'5 9.1
2017-Dec-07 00:30N 42°35' W 070°36'4 9.0
2017-Dec-07 00:00N 42°31' W 070°41'5 9.0
2017-Dec-06 23:30N 42°28' W 070°45'5 9.0
2017-Dec-06 23:00N 42°25' W 070°50'5 9.6
2017-Dec-06 22:30N 42°22' W 070°55'3 4.3
2017-Dec-06 21:47N 42°20' W 070°58'0 0.0
2017-Dec-06 21:29N 42°20' W 070°58'0 0.0
2017-Dec-06 20:56N 42°20' W 070°58'  
2017-Dec-04 10:22N 42°20' W 070°51'0 0.1
2017-Dec-04 10:00N 42°20' W 070°51'0 0.0
2017-Dec-04 09:29N 42°20' W 070°51'0 0.1
2017-Dec-04 09:00N 42°20' W 070°51'0 0.2
2017-Dec-04 08:30N 42°20' W 070°51'0 0.1
2017-Dec-04 08:00N 42°20' W 070°51'0 0.0
2017-Dec-04 07:30N 42°20' W 070°51'0 0.0
2017-Dec-04 07:00N 42°20' W 070°51'0 0.0
2017-Dec-04 06:30N 42°20' W 070°51'0 0.0
2017-Dec-04 06:00N 42°20' W 070°51'0 0.0
2017-Dec-04 05:30N 42°20' W 070°51'0 0.0
2017-Dec-04 05:00N 42°20' W 070°51'0 0.0
2017-Dec-04 04:30N 42°20' W 070°51'0 0.1
2017-Dec-04 04:00N 42°20' W 070°51'0 0.0
2017-Dec-04 03:30N 42°20' W 070°51'0 0.0
2017-Dec-04 03:00N 42°20' W 070°51'0 0.0
2017-Dec-04 02:30N 42°20' W 070°51'0 0.1
2017-Dec-04 02:00N 42°20' W 070°51'0 0.0
2017-Dec-04 01:30N 42°20' W 070°51'0 0.0
2017-Dec-04 01:00N 42°20' W 070°51'0 0.4
2017-Dec-04 00:30N 42°20' W 070°51'2 4.2
2017-Dec-04 00:00N 42°19' W 070°48'5 9.8
2017-Dec-03 23:30N 42°18' W 070°42'5 9.8
2017-Dec-03 23:00N 42°14' W 070°37'5 9.6
2017-Dec-03 22:30N 42°10' W 070°33'5 9.6
2017-Dec-03 22:00N 42°06' W 070°31'81 7.6
2017-Dec-03 11:19N 41°15' W 071°55'9 8.4
2017-Dec-03 10:15N 41°14' W 072°07'2 9.1
2017-Dec-03 10:00N 41°14' W 072°10'5 9.5
2017-Dec-03 09:30N 41°12' W 072°16'5 9.9
2017-Dec-03 09:00N 41°11' W 072°22'510.5
2017-Dec-03 08:30N 41°09' W 072°29'510.5
2017-Dec-03 08:00N 41°07' W 072°35'510.7
2017-Dec-03 07:30N 41°06' W 072°42'510.6
2017-Dec-03 07:00N 41°05' W 072°49'4310.0
2017-Dec-03 02:42N 40°53' W 073°44'2 9.3
2017-Dec-03 02:30N 40°51' W 073°45'4 8.2
2017-Dec-03 02:00N 40°48' W 073°48'5 9.1
2017-Dec-03 01:30N 40°48' W 073°54'4 7.1
2017-Dec-03 01:00N 40°45' W 073°57'3 5.6
2017-Dec-03 00:30N 40°43' W 073°58'3 6.0
2017-Dec-03 00:00N 40°41' W 074°01'3 6.3
2017-Dec-02 23:30N 40°39' W 074°05'3 5.6
2017-Dec-02 23:00N 40°39' W 074°08'2 4.3
2017-Dec-02 22:30N 40°39' W 074°11'3 4.9
2017-Dec-02 22:00N 40°36' W 074°12'0 0.5
2017-Dec-02 21:30N 40°36' W 074°12'0 0.0
2017-Dec-02 21:00N 40°36' W 074°12'0 0.0
2017-Dec-02 20:30N 40°36' W 074°12'0 0.0
2017-Dec-02 20:00N 40°36' W 074°12'0 0.0
2017-Dec-02 19:30N 40°36' W 074°12'0 0.0
2017-Dec-02 18:59N 40°36' W 074°12'0 0.0
2017-Dec-02 18:30N 40°36' W 074°12'0 0.0
2017-Dec-02 18:00N 40°36' W 074°12'0 0.0
2017-Dec-02 17:30N 40°36' W 074°12'0 0.0
2017-Dec-02 16:59N 40°36' W 074°12'0 0.0
2017-Dec-02 16:30N 40°36' W 074°12'0 0.0
2017-Dec-02 16:00N 40°36' W 074°12'0 0.0
2017-Dec-02 15:30N 40°36' W 074°12'0 0.0
2017-Dec-02 15:00N 40°36' W 074°12'0 0.0
2017-Dec-02 14:30N 40°36' W 074°12'0 0.0
2017-Dec-02 14:00N 40°36' W 074°12'0 0.0
2017-Dec-02 13:30N 40°36' W 074°12'0 0.0
2017-Dec-02 13:00N 40°36' W 074°12'0 0.0
2017-Dec-02 12:30N 40°36' W 074°12'0 0.0
2017-Dec-02 12:00N 40°36' W 074°12'0 0.0
2017-Dec-02 11:30N 40°36' W 074°12'0 0.0
2017-Dec-02 11:00N 40°36' W 074°12'0 0.0
2017-Dec-02 10:29N 40°36' W 074°12'0 0.0
2017-Dec-02 10:00N 40°36' W 074°12'0 0.0
2017-Dec-02 09:29N 40°36' W 074°12'0 0.0
2017-Dec-02 09:00N 40°36' W 074°12'0 0.0
2017-Dec-02 08:30N 40°36' W 074°12'0 0.0
2017-Dec-02 08:00N 40°36' W 074°12'0 0.0
2017-Dec-02 07:30N 40°36' W 074°12'0 0.0
2017-Dec-02 07:00N 40°36' W 074°12'0 0.0
2017-Dec-02 06:30N 40°36' W 074°12'0 0.0
2017-Dec-02 06:00N 40°36' W 074°12'0 0.0
2017-Dec-02 05:30N 40°36' W 074°12'0 0.0
2017-Dec-02 04:59N 40°36' W 074°12'0 0.0
2017-Dec-02 04:30N 40°36' W 074°12'0 0.0
2017-Dec-02 04:00N 40°36' W 074°12'0 0.0
2017-Dec-02 03:30N 40°36' W 074°12'0 0.0
2017-Dec-02 02:59N 40°36' W 074°12'0 0.0
2017-Dec-02 02:30N 40°36' W 074°12'0 0.0
2017-Dec-02 02:00N 40°36' W 074°12'0 0.0
2017-Dec-02 01:30N 40°36' W 074°12'2 4.3
2017-Dec-02 01:00N 40°34' W 074°13'1 1.8
2017-Dec-02 00:26N 40°33' W 074°14'3 3.3
2017-Dec-01 23:40N 40°31' W 074°15'1 2.5
2017-Dec-01 23:24N 40°32' W 074°15'2 4.3
2017-Dec-01 22:59N 40°33' W 074°14'2 3.9
2017-Dec-01 22:30N 40°35' W 074°13'1 2.9
2017-Dec-01 22:00N 40°36' W 074°12'2 4.1
2017-Dec-01 21:29N 40°38' W 074°12'2 5.1
2017-Dec-01 21:00N 40°39' W 074°08'4 8.0
2017-Dec-01 20:30N 40°39' W 074°03'1 1.7
2017-Dec-01 20:00N 40°39' W 074°02'2 3.9
2017-Dec-01 19:30N 40°41' W 074°01'3 6.3
2017-Dec-01 19:00N 40°43' W 073°58'4 7.5
2017-Dec-01 18:29N 40°46' W 073°56'3 6.5
2017-Dec-01 18:00N 40°48' W 073°53'3 6.6
2017-Dec-01 17:30N 40°48' W 073°48'2 5.0
2017-Dec-01 17:00N 40°50' W 073°46'  

Dump ship's entire track history